Time;durP1;ratioP1;P1;durP2;ratioP2;P2;SDS_P1;SDS_P2;PMS_P1;PMS_P2;Temp;Humidity;BMP_temperature;BMP_pressure;BME280_temperature;BME280_humidity;BME280_pressure;Samples;Min_cycle;Max_cycle;Signal;HPM_P1;HPM_P2
2022/11/12 00:00:27;;;;;;;;;;;;;;;11.62;45.68;103161.88;5000729;28;19960;-39
2022/11/12 00:02:53;;;;;;;;;;;;;;;11.58;45.67;103166.81;5007527;28;19924;-35
2022/11/12 00:05:18;;;;;;;;;;;;;;;11.55;45.72;103161.84;5005253;28;19914;-40
2022/11/12 00:07:43;;;;;;;;;;;;;;;11.54;45.77;103165.56;5007174;28;19918;-39
2022/11/12 00:10:09;;;;;;;;;;;;;;;11.52;45.96;103169.47;5006589;28;20181;-42
2022/11/12 00:12:34;;;;;;;;;;;;;;;11.50;45.73;103162.44;5002898;28;20376;-38
2022/11/12 00:15:00;;;;;;;;;;;;;;;11.51;45.98;103163.28;4998870;28;20388;-40
2022/11/12 00:17:25;;;;;;;;;;;;;;;11.49;45.89;103168.00;4997597;28;19930;-40
2022/11/12 00:19:50;;;;;;;;;;;;;;;11.49;46.21;103168.84;4998085;28;19925;-41
2022/11/12 00:22:16;;;;;;;;;;;;;;;11.48;46.16;103177.06;4994633;28;19917;-37
2022/11/12 00:24:41;;;;;;;;;;;;;;;11.47;45.87;103164.66;4997190;28;19918;-40
2022/11/12 00:27:06;;;;;;;;;;;;;;;11.44;46.19;103171.25;4996474;28;19933;-39
2022/11/12 00:29:32;;;;;;;;;;;;;;;11.42;46.05;103173.31;5002362;28;19926;-42
2022/11/12 00:31:57;;;;;;;;;;;;;;;11.40;46.06;103183.41;4998760;28;19925;-38
2022/11/12 00:34:22;;;;;;;;;;;;;;;11.38;46.15;103171.22;4996267;28;20326;-38
2022/11/12 00:36:47;;;;;;;;;;;;;;;11.35;45.95;103182.34;4997881;28;19925;-40
2022/11/12 00:39:13;;;;;;;;;;;;;;;11.32;46.01;103182.75;4994943;28;20256;-40
2022/11/12 00:41:38;;;;;;;;;;;;;;;11.29;45.98;103186.63;4995649;28;20159;-41
2022/11/12 00:44:04;;;;;;;;;;;;;;;11.27;46.20;103188.66;4999812;28;20362;-38
2022/11/12 00:46:29;;;;;;;;;;;;;;;11.24;45.64;103181.00;4999636;28;20406;-39
2022/11/12 00:48:55;;;;;;;;;;;;;;;11.19;46.00;103189.66;5007067;28;19921;-39
2022/11/12 00:51:20;;;;;;;;;;;;;;;11.15;45.60;103183.00;4999982;28;20372;-41
2022/11/12 00:53:46;;;;;;;;;;;;;;;11.11;45.63;103179.03;5002943;28;19917;-38
2022/11/12 00:56:12;;;;;;;;;;;;;;;11.08;45.78;103184.78;4999756;28;19917;-40
2022/11/12 00:58:37;;;;;;;;;;;;;;;11.06;45.75;103189.50;5003578;28;20927;-37
2022/11/12 01:01:10;;;;;;;;;;;;;;;11.05;46.05;103187.84;4996356;28;19920;-38
2022/11/12 01:03:36;;;;;;;;;;;;;;;11.02;45.79;103185.56;4998480;28;19952;-40
2022/11/12 01:06:02;;;;;;;;;;;;;;;11.01;45.81;103181.22;4997710;28;20292;-39
2022/11/12 01:08:28;;;;;;;;;;;;;;;10.99;45.86;103188.63;4998263;28;19936;-38
2022/11/12 01:10:53;;;;;;;;;;;;;;;10.98;46.18;103195.00;5000510;28;19925;-41
2022/11/12 01:13:19;;;;;;;;;;;;;;;10.97;45.94;103179.94;4997913;28;20380;-38
2022/11/12 01:15:44;;;;;;;;;;;;;;;10.97;46.05;103196.03;4998272;28;19936;-40
2022/11/12 01:18:09;;;;;;;;;;;;;;;10.97;45.63;103189.84;4994484;28;19976;-37
2022/11/12 01:20:36;;;;;;;;;;;;;;;10.93;45.79;103186.69;4995607;28;20220;-35
2022/11/12 01:23:01;;;;;;;;;;;;;;;10.89;45.86;103182.72;4994312;28;19940;-40
2022/11/12 01:25:27;;;;;;;;;;;;;;;10.86;45.80;103177.75;4994110;28;19925;-37
2022/11/12 01:27:52;;;;;;;;;;;;;;;10.84;46.15;103177.13;4998712;28;19968;-39
2022/11/12 01:30:17;;;;;;;;;;;;;;;10.82;45.86;103180.00;4994329;28;19932;-39
2022/11/12 01:32:43;;;;;;;;;;;;;;;10.80;45.54;103173.16;5000437;28;19953;-36
2022/11/12 01:35:08;;;;;;;;;;;;;;;10.76;45.68;103182.59;4998456;28;19917;-39
2022/11/12 01:37:33;;;;;;;;;;;;;;;10.75;45.78;103181.75;4997610;28;20450;-39
2022/11/12 01:39:59;;;;;;;;;;;;;;;10.74;46.13;103181.94;4998277;28;19929;-37
2022/11/12 01:42:28;;;;;;;;;;;;;;;10.71;45.56;103188.53;4996595;28;19975;-38
2022/11/12 01:44:54;;;;;;;;;;;;;;;10.70;45.72;103186.03;4994164;28;20016;-37
2022/11/12 01:47:25;;;;;;;;;;;;;;;10.68;45.78;103180.03;4997088;28;20304;-39
2022/11/12 01:50:09;;;;;;;;;;;;;;;10.68;46.04;103186.22;4995557;28;19945;-40
2022/11/12 01:52:38;;;;;;;;;;;;;;;10.67;45.99;103183.75;4999954;28;20012;-36
2022/11/12 01:55:06;;;;;;;;;;;;;;;10.66;45.83;103182.09;5003533;28;20765;-38
2022/11/12 01:57:38;;;;;;;;;;;;;;;10.66;45.77;103177.56;5001272;28;20040;-37
2022/11/12 02:00:05;;;;;;;;;;;;;;;10.66;45.97;103182.09;5002179;28;19917;-38
2022/11/12 02:02:31;;;;;;;;;;;;;;;10.66;46.21;103174.88;5001109;28;19922;-38
2022/11/12 02:04:57;;;;;;;;;;;;;;;10.68;46.08;103174.69;5001258;28;19925;-40
2022/11/12 02:07:23;;;;;;;;;;;;;;;10.67;46.53;103178.38;4999275;28;19947;-35
2022/11/12 02:09:49;;;;;;;;;;;;;;;10.66;46.25;103182.91;5002376;28;20011;-38
2022/11/12 02:14:58;;;;;;;;;;;;;;;10.69;46.50;103184.38;5002827;28;19925;-37
2022/11/12 02:17:23;;;;;;;;;;;;;;;10.73;46.48;103182.97;5001830;28;20284;-40
2022/11/12 02:19:50;;;;;;;;;;;;;;;10.77;46.35;103189.59;5001788;28;19925;-37
2022/11/12 02:22:15;;;;;;;;;;;;;;;10.80;46.58;103191.94;4998746;28;20371;-38
2022/11/12 02:24:41;;;;;;;;;;;;;;;10.84;46.41;103193.22;4996006;28;19932;-38
2022/11/12 02:27:06;;;;;;;;;;;;;;;10.85;46.67;103193.03;4997569;28;20334;-35
2022/11/12 02:29:32;;;;;;;;;;;;;;;10.90;46.43;103193.28;4993703;28;19924;-40
2022/11/12 02:31:57;;;;;;;;;;;;;;;10.94;46.51;103191.03;4997850;28;19917;-36
2022/11/12 02:34:22;;;;;;;;;;;;;;;10.99;46.56;103185.94;5000318;28;19921;-39
2022/11/12 02:36:48;;;;;;;;;;;;;;;11.04;46.92;103193.41;5000538;28;19925;-37
2022/11/12 02:39:13;;;;;;;;;;;;;;;11.06;46.77;103192.19;4995341;28;19932;-36
2022/11/12 02:41:39;;;;;;;;;;;;;;;11.11;47.09;103203.16;4992854;28;20227;-38
2022/11/12 02:44:04;;;;;;;;;;;;;;;11.16;47.14;103203.44;4995206;28;20016;-38
2022/11/12 02:46:29;;;;;;;;;;;;;;;11.22;46.97;103201.00;4996026;28;19922;-39
2022/11/12 02:48:54;;;;;;;;;;;;;;;11.29;47.21;103207.25;4998485;28;19917;-40
2022/11/12 02:51:20;;;;;;;;;;;;;;;11.36;47.01;103205.47;5000376;28;20871;-39
2022/11/12 02:53:45;;;;;;;;;;;;;;;11.41;47.13;103203.03;4999462;28;19922;-39
2022/11/12 02:56:10;;;;;;;;;;;;;;;11.46;47.15;103205.97;5004332;28;20012;-37
2022/11/12 02:58:36;;;;;;;;;;;;;;;11.52;47.37;103209.75;5002901;28;20008;-38
2022/11/12 03:01:01;;;;;;;;;;;;;;;11.56;47.40;103211.84;5002532;28;19925;-39
2022/11/12 03:03:26;;;;;;;;;;;;;;;11.61;47.33;103209.41;4998836;28;20373;-35
2022/11/12 03:05:55;;;;;;;;;;;;;;;11.66;47.18;103214.16;5004431;28;19977;-38
2022/11/12 03:08:21;;;;;;;;;;;;;;;11.71;47.49;103211.75;5001941;28;20620;-37
2022/11/12 03:10:46;;;;;;;;;;;;;;;11.75;47.49;103208.47;5002946;28;19918;-39
2022/11/12 03:13:11;;;;;;;;;;;;;;;11.79;47.50;103217.81;4996511;28;19926;-39
2022/11/12 03:15:37;;;;;;;;;;;;;;;11.84;47.63;103206.47;4998687;28;19922;-40
2022/11/12 03:18:02;;;;;;;;;;;;;;;11.90;47.38;103215.63;4995626;28;19925;-36
2022/11/12 03:20:28;;;;;;;;;;;;;;;11.94;47.45;103208.84;5001810;28;20530;-38
2022/11/12 03:22:55;;;;;;;;;;;;;;;11.98;47.74;103204.72;5000686;28;20402;-41
2022/11/12 03:25:20;;;;;;;;;;;;;;;11.99;47.75;103201.00;4997979;28;19927;-40
2022/11/12 03:27:46;;;;;;;;;;;;;;;12.00;47.69;103205.34;5001110;28;19956;-36
2022/11/12 03:30:11;;;;;;;;;;;;;;;11.97;47.84;103197.69;4999032;28;19932;-37
2022/11/12 03:32:36;;;;;;;;;;;;;;;11.95;47.80;103202.44;5001156;28;19932;-35
2022/11/12 03:35:02;;;;;;;;;;;;;;;11.97;47.91;103208.44;4998089;28;19932;-38
2022/11/12 03:37:27;;;;;;;;;;;;;;;12.00;48.26;103202.66;5002589;28;19983;-38
2022/11/12 03:39:52;;;;;;;;;;;;;;;11.99;48.26;103201.84;4999254;28;19917;-41
2022/11/12 03:42:18;;;;;;;;;;;;;;;12.00;48.34;103205.34;4998261;28;19945;-38
2022/11/12 03:44:43;;;;;;;;;;;;;;;12.06;48.25;103208.09;4999725;28;19925;-39
2022/11/12 03:47:08;;;;;;;;;;;;;;;12.12;48.37;103203.78;4996403;28;19968;-38
2022/11/12 03:49:34;;;;;;;;;;;;;;;12.18;48.18;103202.13;5001196;28;19960;-37
2022/11/12 03:51:59;;;;;;;;;;;;;;;12.25;48.43;103200.34;4998133;28;19927;-39
2022/11/12 03:54:24;;;;;;;;;;;;;;;12.31;48.43;103200.34;5001552;28;19929;-36
2022/11/12 03:56:49;;;;;;;;;;;;;;;12.36;48.60;103197.88;5002292;28;19928;-38
2022/11/12 03:59:15;;;;;;;;;;;;;;;12.42;48.73;103198.13;5002851;28;19925;-39
2022/11/12 04:01:40;;;;;;;;;;;;;;;12.47;48.79;103209.09;4999358;28;19925;-39
2022/11/12 04:04:05;;;;;;;;;;;;;;;12.54;48.52;103207.25;5003547;28;19921;-35
2022/11/12 04:09:14;;;;;;;;;;;;;;;12.54;48.66;103209.94;5007242;28;20039;-38
2022/11/12 04:11:40;;;;;;;;;;;;;;;12.54;49.17;103201.88;5004907;28;19979;-38
2022/11/12 04:14:05;;;;;;;;;;;;;;;12.56;49.02;103203.34;5003473;28;19928;-36
2022/11/12 04:22:16;;;;;;;;;;;;;;;12.71;49.27;103201.31;5002720;28;19925;-40
2022/11/12 04:27:27;;;;;;;;;;;;;;;12.86;49.28;103203.84;5003978;28;19980;-40
2022/11/12 04:32:38;;;;;;;;;;;;;;;12.93;49.54;103212.78;5005317;28;19931;-39
2022/11/12 04:35:05;;;;;;;;;;;;;;;12.99;49.23;103217.34;4999417;28;19921;-37
2022/11/12 04:37:43;;;;;;;;;;;;;;;13.02;49.36;103214.25;4996989;28;19980;-37
2022/11/12 04:45:38;;;;;;;;;;;;;;;13.23;49.34;103223.19;5002639;28;19932;-36
2022/11/12 04:48:04;;;;;;;;;;;;;;;13.28;49.49;103208.09;5000729;28;19933;-39
2022/11/12 04:50:29;;;;;;;;;;;;;;;13.33;49.50;103212.88;5006391;28;19921;-39
2022/11/12 04:52:54;;;;;;;;;;;;;;;13.37;49.39;103215.97;5005777;28;19917;-40
2022/11/12 04:55:19;;;;;;;;;;;;;;;13.38;49.65;103223.84;5001480;28;20303;-38
2022/11/12 04:57:45;;;;;;;;;;;;;;;13.41;49.59;103215.34;5001904;28;19924;-38
2022/11/12 05:00:10;;;;;;;;;;;;;;;13.41;49.48;103218.03;5000624;28;20004;-39
2022/11/12 05:02:36;;;;;;;;;;;;;;;13.42;49.66;103219.69;5005878;28;19960;-36
2022/11/12 05:05:01;;;;;;;;;;;;;;;13.42;49.47;103205.41;5002472;28;19933;-38
2022/11/12 05:07:26;;;;;;;;;;;;;;;13.44;49.74;103216.78;5001386;28;19964;-39
2022/11/12 05:09:52;;;;;;;;;;;;;;;13.44;49.83;103217.63;5003515;28;20008;-38
2022/11/12 05:12:17;;;;;;;;;;;;;;;13.45;49.63;103213.06;5002226;28;19918;-40
2022/11/12 05:14:42;;;;;;;;;;;;;;;13.43;49.87;103205.19;5002012;28;19921;-41
2022/11/12 05:17:08;;;;;;;;;;;;;;;13.43;49.82;103213.28;5002687;28;19918;-39
2022/11/12 05:19:34;;;;;;;;;;;;;;;13.45;50.06;103211.19;5001632;28;19921;-38
2022/11/12 05:22:05;;;;;;;;;;;;;;;13.46;50.03;103203.94;5003065;28;20004;-37
2022/11/12 05:24:35;;;;;;;;;;;;;;;13.50;50.02;103206.03;5001474;28;21231;-39
2022/11/12 05:27:00;;;;;;;;;;;;;;;13.53;49.99;103202.91;5002677;28;19929;-39
2022/11/12 05:29:26;;;;;;;;;;;;;;;13.51;49.79;103201.47;5000416;28;20131;-41
2022/11/12 05:31:51;;;;;;;;;;;;;;;13.51;50.09;103201.47;5001286;28;19917;-38
2022/11/12 05:34:16;;;;;;;;;;;;;;;13.52;49.93;103208.53;4997819;28;19979;-37
2022/11/12 05:36:42;;;;;;;;;;;;;;;13.50;50.37;103208.72;4996773;28;19960;-39
2022/11/12 05:39:07;;;;;;;;;;;;;;;13.52;50.08;103208.53;4997431;28;20307;-40
2022/11/12 05:41:33;;;;;;;;;;;;;;;13.51;50.09;103202.31;5000415;28;20388;-39
2022/11/12 05:43:58;;;;;;;;;;;;;;;13.53;50.10;103213.69;4997780;28;20038;-42
2022/11/12 05:46:23;;;;;;;;;;;;;;;13.57;50.12;103214.94;5002055;28;19932;-36
2022/11/12 05:48:48;;;;;;;;;;;;;;;13.63;50.28;103212.44;5000622;28;20346;-36
2022/11/12 05:51:14;;;;;;;;;;;;;;;13.68;50.19;103215.34;5000869;28;20327;-39
2022/11/12 05:53:40;;;;;;;;;;;;;;;13.72;50.29;103214.72;5000910;28;19921;-40
2022/11/12 05:56:05;;;;;;;;;;;;;;;13.72;50.20;103217.41;5000353;28;19923;-39
2022/11/12 05:58:31;;;;;;;;;;;;;;;13.74;50.37;103228.81;5000501;28;20414;-36
2022/11/12 06:00:57;;;;;;;;;;;;;;;13.79;50.42;103220.91;5002554;28;20019;-39
2022/11/12 06:03:23;;;;;;;;;;;;;;;13.85;50.34;103225.50;4998956;28;19926;-37
2022/11/12 06:05:48;;;;;;;;;;;;;;;13.92;50.46;103230.84;4997475;28;19925;-39
2022/11/12 06:08:14;;;;;;;;;;;;;;;14.01;50.50;103232.31;4999544;28;20198;-37
2022/11/12 06:10:39;;;;;;;;;;;;;;;14.06;50.51;103237.88;4999838;28;19921;-39
2022/11/12 06:13:04;;;;;;;;;;;;;;;14.13;50.38;103238.69;4999965;28;20075;-40
2022/11/12 06:15:30;;;;;;;;;;;;;;;14.18;50.38;103244.28;4998243;28;20123;-39
2022/11/12 06:17:55;;;;;;;;;;;;;;;14.23;50.43;103248.22;5001102;28;20300;-39
2022/11/12 06:20:21;;;;;;;;;;;;;;;14.26;50.28;103243.22;4999294;28;20795;-39
2022/11/12 06:22:46;;;;;;;;;;;;;;;14.23;50.37;103243.66;4996148;28;19924;-38
2022/11/12 06:25:12;;;;;;;;;;;;;;;14.26;50.46;103253.19;4999181;28;19918;-39
2022/11/12 06:27:37;;;;;;;;;;;;;;;14.34;50.39;103244.84;4999756;28;20027;-39
2022/11/12 06:30:03;;;;;;;;;;;;;;;14.35;50.26;103246.50;4999454;28;20415;-38
2022/11/12 06:32:29;;;;;;;;;;;;;;;14.38;50.46;103259.59;5003598;28;19917;-41
2022/11/12 06:34:54;;;;;;;;;;;;;;;14.43;50.45;103254.38;5001780;28;19971;-37
2022/11/12 06:37:20;;;;;;;;;;;;;;;14.48;50.34;103268.91;4994412;28;21235;-41
2022/11/12 06:39:46;;;;;;;;;;;;;;;14.49;50.32;103267.84;5001186;28;19921;-39
2022/11/12 06:42:11;;;;;;;;;;;;;;;14.48;50.13;103273.47;5002919;28;20453;-38
2022/11/12 06:44:37;;;;;;;;;;;;;;;14.47;50.11;103261.84;5000962;28;19921;-37
2022/11/12 06:47:02;;;;;;;;;;;;;;;14.45;50.13;103268.50;5000610;28;20206;-39
2022/11/12 06:49:27;;;;;;;;;;;;;;;14.43;50.38;103275.94;4998806;28;19917;-41
2022/11/12 06:51:53;;;;;;;;;;;;;;;14.40;50.55;103271.00;4998063;28;20410;-37
2022/11/12 06:54:18;;;;;;;;;;;;;;;14.37;50.68;103277.63;4997887;28;20003;-39
2022/11/12 06:56:43;;;;;;;;;;;;;;;14.38;50.84;103283.88;4997810;28;20299;-39
2022/11/12 06:59:09;;;;;;;;;;;;;;;14.45;50.66;103273.91;4996982;28;19998;-41
2022/11/12 07:01:34;;;;;;;;;;;;;;;14.54;50.71;103269.09;4999613;28;20335;-40
2022/11/12 07:03:59;;;;;;;;;;;;;;;14.61;50.78;103281.53;4999394;28;19929;-41
2022/11/12 07:06:25;;;;;;;;;;;;;;;14.66;50.67;103275.47;4993795;28;20482;-39
2022/11/12 07:08:50;;;;;;;;;;;;;;;14.69;50.58;103280.44;4994404;28;19929;-39
2022/11/12 07:11:16;;;;;;;;;;;;;;;14.68;50.46;103276.91;4995480;28;19989;-39
2022/11/12 07:13:45;;;;;;;;;;;;;;;14.69;50.60;103272.34;4998075;28;19999;-38
2022/11/12 07:16:12;;;;;;;;;;;;;;;14.71;50.72;103279.19;4996360;28;19937;-38
2022/11/12 07:18:38;;;;;;;;;;;;;;;14.77;50.65;103277.53;4995460;28;19925;-39
2022/11/12 07:21:05;;;;;;;;;;;;;;;14.78;50.47;103268.38;4995457;28;20402;-41
2022/11/12 07:23:31;;;;;;;;;;;;;;;14.76;50.59;103271.28;4999384;28;19932;-38
2022/11/12 07:25:57;;;;;;;;;;;;;;;14.82;51.01;103278.53;5000977;28;19929;-40
2022/11/12 07:28:23;;;;;;;;;;;;;;;14.94;50.99;103285.94;5000310;28;19933;-36
2022/11/12 07:30:58;;;;;;;;;;;;;;;15.02;50.76;103285.69;4998355;28;19924;-36
2022/11/12 07:33:24;;;;;;;;;;;;;;;15.04;50.75;103283.59;4995663;28;20485;-43
2022/11/12 07:35:55;;;;;;;;;;;;;;;15.06;50.72;103286.91;5002324;28;19917;-36
2022/11/12 07:38:21;;;;;;;;;;;;;;;15.08;50.71;103290.22;5004083;28;20732;-39
2022/11/12 07:40:46;;;;;;;;;;;;;;;15.09;50.64;103289.19;5004231;28;20147;-38
2022/11/12 07:43:11;;;;;;;;;;;;;;;15.13;50.71;103295.81;5000103;28;19928;-40
2022/11/12 07:45:36;;;;;;;;;;;;;;;15.18;50.72;103295.97;5002401;28;20041;-37
2022/11/12 07:48:02;;;;;;;;;;;;;;;15.21;50.62;103294.72;5002001;28;19922;-40
2022/11/12 07:50:27;;;;;;;;;;;;;;;15.21;50.72;103298.25;5003749;28;19924;-40
2022/11/12 07:52:52;;;;;;;;;;;;;;;15.26;50.76;103293.03;5002213;28;20012;-39
2022/11/12 07:55:18;;;;;;;;;;;;;;;15.27;50.52;103292.00;4999734;28;20426;-39
2022/11/12 07:57:43;;;;;;;;;;;;;;;15.26;50.54;103293.03;5001205;28;19925;-39
2022/11/12 08:00:11;;;;;;;;;;;;;;;15.30;50.96;103288.03;5000700;28;20135;-40
2022/11/12 08:02:36;;;;;;;;;;;;;;;15.34;50.77;103275.72;5001938;28;20339;-43
2022/11/12 08:05:01;;;;;;;;;;;;;;;15.38;50.75;103282.34;5000399;28;19975;-40
2022/11/12 08:07:27;;;;;;;;;;;;;;;15.42;50.90;103281.69;4998245;28;20414;-41
2022/11/12 08:09:52;;;;;;;;;;;;;;;15.48;50.92;103279.19;4998013;28;20446;-38
2022/11/12 08:12:17;;;;;;;;;;;;;;;15.53;51.00;103282.88;4997922;28;20276;-40
2022/11/12 08:14:43;;;;;;;;;;;;;;;15.60;50.93;103291.78;4999684;28;19957;-37
2022/11/12 08:17:08;;;;;;;;;;;;;;;15.68;51.17;103309.59;4999525;28;20563;-39
2022/11/12 08:19:33;;;;;;;;;;;;;;;15.83;51.03;103303.88;5001595;28;19926;-40
2022/11/12 08:21:58;;;;;;;;;;;;;;;15.94;51.08;103301.25;5001154;28;20235;-40
2022/11/12 08:24:24;;;;;;;;;;;;;;;16.08;51.02;103307.38;4997221;28;19960;-39
2022/11/12 08:26:49;;;;;;;;;;;;;;;16.22;50.96;103303.50;4999731;28;20322;-36
2022/11/12 08:29:14;;;;;;;;;;;;;;;16.37;50.79;103310.44;4998019;28;19925;-41
2022/11/12 08:31:40;;;;;;;;;;;;;;;16.50;50.80;103300.25;4998222;28;20141;-40
2022/11/12 08:34:11;;;;;;;;;;;;;;;16.61;50.46;103299.53;4995288;28;19921;-40
2022/11/12 08:36:38;;;;;;;;;;;;;;;16.69;50.38;103311.13;4994849;28;19973;-40
2022/11/12 08:39:03;;;;;;;;;;;;;;;16.76;50.28;103304.59;4996480;28;20107;-42
2022/11/12 08:41:28;;;;;;;;;;;;;;;16.86;50.26;103320.28;4998765;28;20602;-39
2022/11/12 08:43:54;;;;;;;;;;;;;;;16.94;50.33;103319.16;4994580;28;19925;-36
2022/11/12 08:46:19;;;;;;;;;;;;;;;17.03;50.45;103305.03;4994636;28;20023;-37
2022/11/12 08:48:44;;;;;;;;;;;;;;;17.13;50.29;103304.50;4995062;28;19921;-39
2022/11/12 08:51:10;;;;;;;;;;;;;;;17.20;50.06;103330.44;4999818;28;19928;-38
2022/11/12 08:53:35;;;;;;;;;;;;;;;17.30;50.17;103326.38;5000867;28;20280;-39
2022/11/12 08:56:00;;;;;;;;;;;;;;;17.38;50.21;103315.19;4998394;28;20387;-38
2022/11/12 08:58:26;;;;;;;;;;;;;;;17.42;50.00;103322.66;4999100;28;19960;-38
2022/11/12 09:00:52;;;;;;;;;;;;;;;17.45;49.97;103329.47;5002836;28;20211;-39
2022/11/12 09:03:18;;;;;;;;;;;;;;;17.49;50.09;103330.66;4998969;28;19921;-37
2022/11/12 09:05:44;;;;;;;;;;;;;;;17.52;49.83;103336.44;4994272;28;20667;-39
2022/11/12 09:08:11;;;;;;;;;;;;;;;17.56;49.81;103347.63;4993885;28;19931;-40
2022/11/12 09:10:37;;;;;;;;;;;;;;;17.63;49.90;103348.38;5002541;28;19925;-38
2022/11/12 09:13:02;;;;;;;;;;;;;;;17.68;49.74;103353.13;4998081;28;19918;-39
2022/11/12 09:15:28;;;;;;;;;;;;;;;17.70;49.58;103356.44;5011231;28;20413;-41
2022/11/12 09:17:57;;;;;;;;;;;;;;;17.70;49.68;103357.25;5001544;28;19925;-40
2022/11/12 09:20:22;;;;;;;;;;;;;;;17.70;49.41;103353.72;5001049;28;20217;-42
2022/11/12 09:22:48;;;;;;;;;;;;;;;17.65;49.51;103356.28;4995334;28;19926;-41
2022/11/12 09:25:13;;;;;;;;;;;;;;;17.63;49.47;103356.50;4996749;28;20275;-40
2022/11/12 09:27:38;;;;;;;;;;;;;;;17.65;49.70;103357.09;4996346;28;20657;-41
2022/11/12 09:30:05;;;;;;;;;;;;;;;17.70;49.50;103351.84;4997750;28;19928;-41
2022/11/12 09:32:30;;;;;;;;;;;;;;;17.74;49.44;103353.03;4999734;28;20418;-40
2022/11/12 09:34:56;;;;;;;;;;;;;;;17.80;49.35;103349.41;4994836;28;20450;-40
2022/11/12 09:37:21;;;;;;;;;;;;;;;17.86;49.29;103353.03;4998971;28;19953;-37
2022/11/12 09:39:47;;;;;;;;;;;;;;;17.89;48.99;103357.19;5002228;28;21372;-42
2022/11/12 09:42:13;;;;;;;;;;;;;;;17.91;49.12;103360.47;5015300;28;20015;-41
2022/11/12 09:44:40;;;;;;;;;;;;;;;17.96;49.27;103357.91;5000661;28;19964;-41
2022/11/12 09:47:18;;;;;;;;;;;;;;;18.00;48.81;103361.78;5001813;28;19926;-41
2022/11/12 09:49:54;;;;;;;;;;;;;;;18.04;48.88;103354.84;4999247;28;19926;-41
2022/11/12 09:52:25;;;;;;;;;;;;;;;18.02;48.84;103368.63;5000095;28;19922;-38
2022/11/12 09:54:54;;;;;;;;;;;;;;;18.06;48.90;103367.09;4997948;28;19925;-39
2022/11/12 09:57:20;;;;;;;;;;;;;;;18.08;48.89;103354.13;5000547;28;19955;-42
2022/11/12 09:59:45;;;;;;;;;;;;;;;18.06;48.54;103360.84;4997641;28;19929;-36
2022/11/12 10:02:22;;;;;;;;;;;;;;;18.03;48.80;103355.91;4997384;28;19976;-39
2022/11/12 10:04:53;;;;;;;;;;;;;;;18.01;49.01;103356.13;4998422;28;20382;-40
2022/11/12 10:07:24;;;;;;;;;;;;;;;18.06;48.86;103358.13;4999654;28;19921;-39
2022/11/12 10:09:55;;;;;;;;;;;;;;;18.18;48.82;103347.31;4995814;28;20186;-38
2022/11/12 10:12:39;;;;;;;;;;;;;;;18.30;48.72;103354.34;4999051;28;20020;-39
2022/11/12 10:18:01;;;;;;;;;;;;;;;18.53;48.62;103331.81;4999634;28;20345;-40
2022/11/12 10:20:35;;;;;;;;;;;;;;;18.66;48.18;103325.31;4996735;28;19925;-40
2022/11/12 10:23:00;;;;;;;;;;;;;;;18.75;47.90;103342.88;4999526;28;20368;-42
2022/11/12 10:25:26;;;;;;;;;;;;;;;18.81;48.06;103352.78;5002712;28;19976;-40
2022/11/12 10:27:53;;;;;;;;;;;;;;;18.86;47.49;103342.03;5005051;28;19929;-38
2022/11/12 10:30:25;;;;;;;;;;;;;;;18.89;47.96;103347.00;5002284;28;20209;-41
2022/11/12 10:32:51;;;;;;;;;;;;;;;18.95;47.70;103350.63;4999175;28;20015;-40
2022/11/12 10:35:19;;;;;;;;;;;;;;;19.04;47.53;103340.22;4999784;28;19921;-37
2022/11/12 10:37:45;;;;;;;;;;;;;;;19.09;47.64;103352.00;5002276;28;20272;-37
2022/11/12 10:40:20;;;;;;;;;;;;;;;19.18;47.35;103338.81;5001488;28;20019;-37
2022/11/12 10:42:56;;;;;;;;;;;;;;;19.22;47.42;103338.13;5003282;28;19963;-41
2022/11/12 10:45:22;;;;;;;;;;;;;;;19.31;47.41;103331.22;5001389;28;20429;-38
2022/11/12 10:47:47;;;;;;;;;;;;;;;19.39;47.40;103329.16;5004747;28;19929;-38
2022/11/12 10:50:13;;;;;;;;;;;;;;;19.50;47.38;103331.81;5002271;28;19928;-36
2022/11/12 10:52:38;;;;;;;;;;;;;;;19.57;46.95;103332.53;5003692;28;19957;-39
2022/11/12 10:55:19;;;;;;;;;;;;;;;19.63;47.05;103321.72;5002558;28;19928;-37
2022/11/12 10:57:44;;;;;;;;;;;;;;;19.67;47.13;103333.75;5003369;28;19957;-39
2022/11/12 11:00:09;;;;;;;;;;;;;;;19.77;47.29;103339.38;5002170;28;20216;-39
2022/11/12 11:02:35;;;;;;;;;;;;;;;19.85;46.85;103342.50;5004332;28;20395;-40
2022/11/12 11:05:19;;;;;;;;;;;;;;;19.93;46.98;103341.28;5002663;28;20829;-38
2022/11/12 11:07:48;;;;;;;;;;;;;;;20.01;46.70;103338.13;5002538;28;20292;-40
2022/11/12 11:10:33;;;;;;;;;;;;;;;20.13;47.02;103338.84;5000339;28;19963;-39
2022/11/12 11:13:18;;;;;;;;;;;;;;;20.22;46.49;103333.81;5006953;28;19921;-40
2022/11/12 11:16:00;;;;;;;;;;;;;;;20.29;46.53;103336.34;5007222;28;20635;-40
2022/11/12 11:18:31;;;;;;;;;;;;;;;20.36;46.54;103334.28;5004813;28;20483;-40
2022/11/12 11:21:07;;;;;;;;;;;;;;;20.44;46.45;103328.41;5004589;28;19924;-39
2022/11/12 11:23:38;;;;;;;;;;;;;;;20.52;46.38;103328.00;5005766;28;19976;-39
2022/11/12 11:26:19;;;;;;;;;;;;;;;20.59;46.23;103322.34;5007322;28;19924;-41
2022/11/12 11:28:48;;;;;;;;;;;;;;;20.69;46.08;103325.22;5004254;28;19921;-40
2022/11/12 11:31:22;;;;;;;;;;;;;;;20.75;45.71;103330.44;5005649;28;19990;-40
2022/11/12 11:33:56;;;;;;;;;;;;;;;20.79;45.69;103314.41;5003052;28;20147;-42
2022/11/12 11:36:31;;;;;;;;;;;;;;;20.89;45.84;103327.34;5002972;28;19933;-40
2022/11/12 11:39:09;;;;;;;;;;;;;;;21.01;45.81;103314.41;5000944;28;20407;-38
2022/11/12 11:41:37;;;;;;;;;;;;;;;21.10;45.47;103312.84;5006275;28;19921;-40
2022/11/12 11:44:05;;;;;;;;;;;;;;;21.17;45.82;103318.91;5004573;28;19987;-38
2022/11/12 11:46:31;;;;;;;;;;;;;;;21.26;45.50;103311.13;5002353;28;19979;-40
2022/11/12 11:49:15;;;;;;;;;;;;;;;21.34;45.44;103318.84;5005297;28;20346;-40
2022/11/12 11:51:59;;;;;;;;;;;;;;;21.39;45.41;103311.53;5003633;28;20343;-39
2022/11/12 11:54:42;;;;;;;;;;;;;;;21.46;45.00;103308.59;5003071;28;20027;-41
2022/11/12 11:57:14;;;;;;;;;;;;;;;21.52;45.28;103318.47;5005346;28;19987;-39
2022/11/12 11:59:45;;;;;;;;;;;;;;;21.56;45.14;103305.16;5006008;28;19918;-39
2022/11/12 12:02:26;;;;;;;;;;;;;;;21.61;45.06;103305.19;5005534;28;20743;-42
2022/11/12 12:05:01;;;;;;;;;;;;;;;21.65;45.07;103306.28;5004719;28;19987;-40
2022/11/12 12:07:45;;;;;;;;;;;;;;;21.69;45.15;103307.41;5004395;28;19951;-41
2022/11/12 12:10:10;;;;;;;;;;;;;;;21.74;45.06;103320.28;5005240;28;20474;-40
2022/11/12 12:12:54;;;;;;;;;;;;;;;21.77;45.04;103306.13;4995642;28;19928;-43
2022/11/12 12:15:34;;;;;;;;;;;;;;;21.78;44.81;103308.59;5000355;28;19921;-40
2022/11/12 12:18:10;;;;;;;;;;;;;;;21.79;44.93;103304.78;5000823;28;19929;-41
2022/11/12 12:20:48;;;;;;;;;;;;;;;21.81;44.89;103302.59;4994783;28;20268;-41
2022/11/12 12:23:32;;;;;;;;;;;;;;;21.85;44.65;103300.97;5002239;28;20354;-42
2022/11/12 12:25:59;;;;;;;;;;;;;;;21.86;44.83;103299.06;4998290;28;19932;-41
2022/11/12 12:28:25;;;;;;;;;;;;;;;21.88;44.53;103299.63;4997124;28;19932;-39
2022/11/12 12:30:52;;;;;;;;;;;;;;;21.89;44.46;103304.81;5000847;28;19921;-41
2022/11/12 12:33:30;;;;;;;;;;;;;;;21.87;44.33;103296.09;4996291;28;20348;-42
2022/11/12 12:36:00;;;;;;;;;;;;;;;21.89;44.63;103304.00;4998948;28;20373;-39
2022/11/12 12:38:43;;;;;;;;;;;;;;;21.91;44.54;103301.88;4998025;28;19925;-42
2022/11/12 12:41:15;;;;;;;;;;;;;;;21.96;44.59;103305.44;4999060;28;19925;-41
2022/11/12 12:43:44;;;;;;;;;;;;;;;21.99;44.52;103296.72;4998894;28;19983;-42
2022/11/12 12:46:11;;;;;;;;;;;;;;;22.02;44.17;103298.91;4999448;28;19932;-42
2022/11/12 12:48:39;;;;;;;;;;;;;;;22.03;44.21;103302.47;5000658;28;19968;-42
2022/11/12 12:51:05;;;;;;;;;;;;;;;22.05;44.13;103311.25;4996977;28;20032;-41
2022/11/12 12:53:31;;;;;;;;;;;;;;;22.08;43.93;103307.16;4998834;28;20004;-43
2022/11/12 12:56:01;;;;;;;;;;;;;;;22.09;44.16;103298.72;5108696;22;19937;-35
2022/11/12 12:58:27;;;;;;;;;;;;;;;22.11;44.01;103293.81;5016186;28;20172;-35
2022/11/12 13:00:57;;;;;;;;;;;;;;;22.15;44.09;103291.38;5019255;28;19925;-35